Time;durP1;ratioP1;P1;durP2;ratioP2;P2;SDS_P1;SDS_P2;PMS_P1;PMS_P2;Temp;Humidity;BMP_temperature;BMP_pressure;BME280_temperature;BME280_humidity;BME280_pressure;Samples;Min_cycle;Max_cycle;Signal;HPM_P1;HPM_P2
2024/03/24 00:02:34;;;;;;;12.90;4.77;;;3.00;25.20;;;;;;5039411;27;20213;-68
2024/03/24 00:05:20;;;;;;;13.97;5.00;;;2.90;99.90;;;;;;5039914;28;20212;-68
2024/03/24 00:08:08;;;;;;;11.43;4.70;;;2.90;17.10;;;;;;5037467;27;20189;-68
2024/03/24 00:10:54;;;;;;;13.30;4.60;;;3.00;99.90;;;;;;5039186;27;20222;-68
2024/03/24 00:13:43;;;;;;;12.90;4.70;;;3.00;1.00;;;;;;5043243;27;20197;-68
2024/03/24 00:16:29;;;;;;;13.13;4.90;;;3.00;99.90;;;;;;5048599;27;20701;-68
2024/03/24 00:19:16;;;;;;;11.17;4.37;;;3.00;46.00;;;;;;5029049;28;20321;-68
2024/03/24 00:22:02;;;;;;;14.10;4.83;;;2.90;99.90;;;;;;5035555;28;20933;-68
2024/03/24 00:24:49;;;;;;;13.00;4.33;;;2.90;99.90;;;;;;5019988;28;20197;-68
2024/03/24 00:27:36;;;;;;;13.97;4.20;;;2.90;99.90;;;;;;5018394;28;20199;-68
2024/03/24 00:30:24;;;;;;;8.40;3.97;;;3.00;99.90;;;;;;5020959;28;20194;-68
2024/03/24 00:33:11;;;;;;;12.83;4.17;;;3.00;1.00;;;;;;5021306;28;20213;-68
2024/03/24 00:35:58;;;;;;;16.53;4.23;;;2.90;1.00;;;;;;5013119;28;20209;-68
2024/03/24 00:38:45;;;;;;;13.20;4.47;;;3.00;1.00;;;;;;5026567;28;20206;-68
2024/03/24 00:41:31;;;;;;;10.97;3.83;;;2.90;1.00;;;;;;5020643;28;20210;-68
2024/03/24 00:44:18;;;;;;;11.67;4.67;;;2.90;99.90;;;;;;5019852;28;20248;-68
2024/03/24 00:47:06;;;;;;;10.77;4.03;;;2.90;1.00;;;;;;5019357;28;20679;-68
2024/03/24 00:49:53;;;;;;;10.80;4.23;;;2.70;1.00;;;;;;5029018;28;20216;-68
2024/03/24 00:52:39;;;;;;;13.27;3.90;;;2.60;99.90;;;;;;5019707;28;20201;-68
2024/03/24 00:55:26;;;;;;;11.27;4.00;;;2.60;1.00;;;;;;5012560;28;20599;-68
2024/03/24 00:58:12;;;;;;;12.90;3.90;;;2.50;1.00;;;;;;5021241;28;20264;-68
2024/03/24 01:01:00;;;;;;;7.57;3.73;;;2.60;1.00;;;;;;5019579;28;20194;-68
2024/03/24 01:03:47;;;;;;;10.97;3.80;;;2.60;96.90;;;;;;5027002;28;20206;-68
2024/03/24 01:06:34;;;;;;;9.30;3.90;;;2.60;1.00;;;;;;5020543;28;20462;-68
2024/03/24 01:09:21;;;;;;;9.70;3.93;;;2.60;1.00;;;;;;5041690;28;20697;-68
2024/03/24 01:12:08;;;;;;;13.27;4.60;;;2.50;1.00;;;;;;5015907;28;20199;-68
2024/03/24 01:14:54;;;;;;;9.67;3.97;;;2.50;1.00;;;;;;5016752;28;20244;-68
2024/03/24 01:17:42;;;;;;;10.90;4.20;;;2.50;32.80;;;;;;5024259;28;20635;-68
2024/03/24 01:20:30;;;;;;;10.87;4.47;;;2.60;1.00;;;;;;5011294;28;20943;-68
2024/03/24 01:23:17;;;;;;;10.80;3.80;;;2.50;1.00;;;;;;5016075;28;20203;-68
2024/03/24 01:26:03;;;;;;;10.03;4.07;;;2.40;1.00;;;;;;5025630;28;20205;-68
2024/03/24 01:28:51;;;;;;;12.33;4.40;;;2.30;99.90;;;;;;5024146;28;20203;-68
2024/03/24 01:31:37;;;;;;;9.63;4.40;;;2.00;99.90;;;;;;5017818;28;20194;-68
2024/03/24 01:34:25;;;;;;;15.23;4.70;;;2.00;58.30;;;;;;5018068;28;20290;-68
2024/03/24 01:37:12;;;;;;;19.67;6.20;;;1.90;99.90;;;;;;5021941;28;20292;-68
2024/03/24 01:39:59;;;;;;;15.03;5.27;;;1.90;99.90;;;;;;5016078;28;20677;-69
2024/03/24 01:42:46;;;;;;;12.90;5.40;;;1.90;99.90;;;;;;5016076;28;20213;-68
2024/03/24 01:45:33;;;;;;;11.87;5.47;;;2.00;1.00;;;;;;5020871;28;20198;-68
2024/03/24 01:48:20;;;;;;;16.47;6.03;;;2.10;49.90;;;;;;5019707;28;20254;-68
2024/03/24 01:51:09;;;;;;;15.10;5.83;;;2.10;99.90;;;;;;5018263;28;20202;-68
2024/03/24 01:53:56;;;;;;;16.43;5.80;;;2.20;1.00;;;;;;5018793;28;20677;-68
2024/03/24 01:56:44;;;;;;;12.93;5.93;;;2.00;1.00;;;;;;5022319;28;20221;-68
2024/03/24 01:59:30;;;;;;;20.63;8.90;;;2.00;99.90;;;;;;5025777;28;20590;-68
2024/03/24 02:02:17;;;;;;;23.57;7.80;;;2.10;1.00;;;;;;5017692;28;20230;-68
2024/03/24 02:05:04;;;;;;;19.07;8.80;;;2.10;99.90;;;;;;5017224;28;20210;-68
2024/03/24 02:07:51;;;;;;;14.93;7.03;;;2.20;99.90;;;;;;5022248;28;20194;-68
2024/03/24 02:10:39;;;;;;;14.77;6.30;;;2.20;1.00;;;;;;5019398;28;20783;-68
2024/03/24 02:13:26;;;;;;;19.57;7.10;;;2.20;1.00;;;;;;5016972;28;20203;-68
2024/03/24 02:16:12;;;;;;;15.30;6.63;;;2.10;1.00;;;;;;5014113;28;20203;-68
2024/03/24 02:18:59;;;;;;;17.13;6.00;;;2.00;1.00;;;;;;5025809;28;20249;-68
2024/03/24 02:21:45;;;;;;;13.50;6.30;;;1.90;1.00;;;;;;5017186;28;20203;-68
2024/03/24 02:24:34;;;;;;;15.47;6.40;;;1.80;1.00;;;;;;5036735;28;20198;-68
2024/03/24 02:27:20;;;;;;;15.97;6.40;;;1.80;1.00;;;;;;5016451;28;20198;-68
2024/03/24 02:30:10;;;;;;;17.23;6.70;;;1.70;1.00;;;;;;5019547;28;20197;-68
2024/03/24 02:32:56;;;;;;;17.33;6.57;;;1.70;67.30;;;;;;5014862;28;20210;-68
2024/03/24 02:35:45;;;;;;;15.27;6.90;;;1.60;99.90;;;;;;5017432;28;20267;-68
2024/03/24 02:38:31;;;;;;;14.40;6.93;;;1.60;1.00;;;;;;5013188;28;20226;-68
2024/03/24 02:41:19;;;;;;;14.87;7.20;;;1.50;1.00;;;;;;5016547;28;20576;-68
2024/03/24 02:44:06;;;;;;;15.53;6.70;;;1.60;99.90;;;;;;5017243;28;20219;-69
2024/03/24 02:46:53;;;;;;;21.43;8.50;;;1.50;99.90;;;;;;5017697;28;20636;-68
2024/03/24 02:49:39;;;;;;;14.30;5.93;;;1.50;1.00;;;;;;5017951;28;20209;-68
2024/03/24 02:52:26;;;;;;;16.93;7.17;;;1.50;99.90;;;;;;5027833;28;20609;-68
2024/03/24 02:55:12;;;;;;;12.27;6.30;;;1.60;99.90;;;;;;5017144;28;20210;-68
2024/03/24 02:58:01;;;;;;;12.83;6.27;;;1.70;99.90;;;;;;5017668;28;20196;-68
2024/03/24 03:00:47;;;;;;;17.03;6.90;;;1.60;1.00;;;;;;5019117;28;20216;-68
2024/03/24 03:03:34;;;;;;;16.00;7.57;;;1.50;1.00;;;;;;5020048;28;20233;-68
2024/03/24 03:06:20;;;;;;;21.03;9.20;;;1.40;1.00;;;;;;5023712;28;20209;-68
2024/03/24 03:09:08;;;;;;;19.47;7.83;;;1.40;1.00;;;;;;5011758;28;20236;-68
2024/03/24 03:11:56;;;;;;;16.47;7.17;;;1.30;40.70;;;;;;5019364;28;20208;-68
2024/03/24 03:14:43;;;;;;;17.40;7.33;;;1.30;99.90;;;;;;5016229;28;20618;-68
2024/03/24 03:17:30;;;;;;;13.93;7.97;;;1.30;1.00;;;;;;5035113;28;20232;-68
2024/03/24 03:20:16;;;;;;;19.80;9.40;;;1.20;1.00;;;;;;5046049;28;20605;-68
2024/03/24 03:23:05;;;;;;;23.10;9.57;;;1.10;1.00;;;;;;5043174;27;20263;-68
2024/03/24 03:25:51;;;;;;;19.93;10.23;;;1.00;1.00;;;;;;5037445;27;20205;-68
2024/03/24 03:28:38;;;;;;;17.43;8.37;;;0.90;99.90;;;;;;5038774;27;20197;-68
2024/03/24 03:31:26;;;;;;;23.57;9.40;;;0.80;99.90;;;;;;5035568;27;20591;-68
2024/03/24 03:34:13;;;;;;;21.03;9.27;;;0.80;1.00;;;;;;5045732;28;20208;-68
2024/03/24 03:37:00;;;;;;;20.30;9.00;;;0.80;1.00;;;;;;5043939;27;20201;-68
2024/03/24 03:39:47;;;;;;;18.90;9.07;;;0.90;99.90;;;;;;5041679;27;20683;-68
2024/03/24 03:42:33;;;;;;;25.57;12.50;;;0.90;99.90;;;;;;5042692;27;20202;-68
2024/03/24 03:45:23;;;;;;;23.80;11.03;;;0.90;99.90;;;;;;5046382;28;20336;-68
2024/03/24 03:48:11;;;;;;;26.27;12.00;;;0.90;99.90;;;;;;5046039;27;20205;-69
2024/03/24 03:51:00;;;;;;;27.47;11.77;;;1.00;1.00;;;;;;5046914;27;20634;-68
2024/03/24 03:53:48;;;;;;;20.53;10.03;;;1.10;1.00;;;;;;5047645;27;20241;-68
2024/03/24 03:56:35;;;;;;;39.27;19.93;;;1.10;1.00;;;;;;5044619;27;20194;-68
2024/03/24 03:59:21;;;;;;;28.07;14.00;;;1.10;99.90;;;;;;5045317;27;20213;-68
2024/03/24 04:02:08;;;;;;;21.90;11.73;;;1.30;1.00;;;;;;5047462;27;20653;-68
2024/03/24 04:04:56;;;;;;;27.13;12.37;;;1.30;1.00;;;;;;5047379;27;20297;-68
2024/03/24 04:07:43;;;;;;;34.93;15.90;;;1.40;1.00;;;;;;5044379;28;20205;-68
2024/03/24 04:10:29;;;;;;;27.37;12.30;;;1.50;1.00;;;;;;5047062;27;20616;-68
2024/03/24 04:13:16;;;;;;;29.37;13.93;;;1.50;1.00;;;;;;5043671;27;20197;-68
2024/03/24 04:16:04;;;;;;;31.70;15.93;;;1.50;1.00;;;;;;5044767;27;20241;-68
2024/03/24 04:18:51;;;;;;;38.40;17.43;;;1.50;1.00;;;;;;5039985;28;20237;-68
2024/03/24 04:21:40;;;;;;;32.27;16.27;;;1.60;1.00;;;;;;5046988;28;20231;-68
2024/03/24 04:24:26;;;;;;;30.30;14.57;;;1.60;1.00;;;;;;5042447;28;20665;-68
2024/03/24 04:27:13;;;;;;;35.13;15.97;;;1.60;1.00;;;;;;5049443;27;20193;-68
2024/03/24 04:29:59;;;;;;;34.17;16.60;;;1.70;1.00;;;;;;5050212;27;20204;-68
2024/03/24 04:32:46;;;;;;;38.10;18.97;;;1.70;1.00;;;;;;5043322;27;20204;-68
2024/03/24 04:35:34;;;;;;;37.00;17.60;;;1.80;1.00;;;;;;5043627;27;20201;-68
2024/03/24 04:38:21;;;;;;;37.43;17.63;;;1.90;1.00;;;;;;5044672;27;20201;-68
2024/03/24 04:41:09;;;;;;;40.17;17.00;;;2.00;1.00;;;;;;5043420;27;20216;-68
2024/03/24 04:43:56;;;;;;;36.63;18.53;;;2.00;1.00;;;;;;5044125;27;20221;-68
2024/03/24 04:46:43;;;;;;;34.10;17.03;;;2.10;1.00;;;;;;5043644;27;20212;-68
2024/03/24 04:49:31;;;;;;;38.43;16.27;;;2.30;1.00;;;;;;5043812;27;20193;-68
2024/03/24 04:52:17;;;;;;;35.83;17.60;;;2.40;1.00;;;;;;5044560;27;20563;-68
2024/03/24 04:55:06;;;;;;;38.50;17.50;;;2.50;1.00;;;;;;5042072;27;20245;-68
2024/03/24 04:57:52;;;;;;;36.13;16.67;;;2.40;99.90;;;;;;5046613;27;20204;-68
2024/03/24 05:00:39;;;;;;;38.03;17.60;;;2.40;1.00;;;;;;5044990;27;20216;-69
2024/03/24 05:03:26;;;;;;;38.70;17.87;;;2.40;99.90;;;;;;5048541;27;20208;-69
2024/03/24 05:06:13;;;;;;;30.47;16.17;;;2.30;99.90;;;;;;5046743;27;20197;-69
2024/03/24 05:08:59;;;;;;;34.57;17.10;;;2.30;1.00;;;;;;5046079;27;20204;-69
2024/03/24 05:11:47;;;;;;;34.80;16.40;;;2.30;1.00;;;;;;5048731;28;20201;-68
2024/03/24 05:14:35;;;;;;;35.47;18.03;;;2.30;1.00;;;;;;5048535;27;20198;-68
2024/03/24 05:17:22;;;;;;;39.23;17.07;;;2.40;99.90;;;;;;5036763;27;20231;-68
2024/03/24 05:20:09;;;;;;;35.43;17.53;;;2.40;1.00;;;;;;5032398;28;20215;-68
2024/03/24 05:22:56;;;;;;;37.87;17.70;;;2.30;1.00;;;;;;5021102;28;20212;-68
2024/03/24 05:25:43;;;;;;;42.60;17.83;;;2.30;1.00;;;;;;5031008;27;20700;-68
2024/03/24 05:28:31;;;;;;;41.43;20.13;;;2.40;99.90;;;;;;5021962;28;20189;-68
2024/03/24 05:31:17;;;;;;;43.73;19.53;;;2.50;99.90;;;;;;5027537;28;20209;-68
2024/03/24 05:34:05;;;;;;;45.30;19.47;;;2.50;99.90;;;;;;5029169;27;20234;-68
2024/03/24 05:36:51;;;;;;;43.50;19.87;;;2.60;99.90;;;;;;5026662;28;20281;-68
2024/03/24 05:39:38;;;;;;;39.53;18.53;;;2.70;1.00;;;;;;5030448;27;20214;-68
2024/03/24 05:42:24;;;;;;;45.30;22.40;;;2.70;1.00;;;;;;5024283;28;20202;-68
2024/03/24 05:45:15;;;;;;;45.47;21.87;;;2.80;5.50;;;;;;5031951;28;20197;-68
2024/03/24 05:48:01;;;;;;;43.50;21.67;;;3.10;99.90;;;;;;5026687;28;20206;-68
2024/03/24 05:50:57;;;;;;;47.37;24.43;;;3.20;99.90;;;;;;5030164;27;20194;-67
2024/03/24 05:53:43;;;;;;;41.13;21.27;;;3.30;99.90;;;;;;5023144;28;20282;-68
2024/03/24 05:56:30;;;;;;;46.37;19.73;;;3.30;99.90;;;;;;5028175;28;20218;-68
2024/03/24 05:59:17;;;;;;;51.10;22.27;;;3.30;99.90;;;;;;5026637;28;20679;-68
2024/03/24 06:02:06;;;;;;;55.80;26.13;;;3.30;99.90;;;;;;5023884;28;20197;-69
2024/03/24 06:04:53;;;;;;;52.20;26.50;;;3.20;99.90;;;;;;5021227;28;21271;-68
2024/03/24 06:07:39;;;;;;;54.40;27.63;;;3.20;99.90;;;;;;5027284;28;20340;-68
2024/03/24 06:10:26;;;;;;;53.23;28.03;;;3.20;99.90;;;;;;5027748;28;20221;-68
2024/03/24 06:13:12;;;;;;;58.50;29.33;;;3.20;60.00;;;;;;5034644;27;20213;-69
2024/03/24 06:16:00;;;;;;;50.57;26.27;;;3.20;1.00;;;;;;5053016;27;20204;-68
2024/03/24 06:18:48;;;;;;;56.83;28.17;;;3.20;1.00;;;;;;5048963;28;20661;-68
2024/03/24 06:21:35;;;;;;;57.87;30.07;;;3.10;1.00;;;;;;5048070;27;20208;-68
2024/03/24 06:24:21;;;;;;;56.33;29.43;;;3.00;1.00;;;;;;5041376;27;20233;-68
2024/03/24 06:27:08;;;;;;;51.97;26.53;;;3.00;1.00;;;;;;5049775;27;20698;-68
2024/03/24 06:29:54;;;;;;;47.00;25.90;;;3.00;1.00;;;;;;5045277;28;20205;-68
2024/03/24 06:32:42;;;;;;;31.67;15.03;;;2.90;1.00;;;;;;5048733;27;20197;-68
2024/03/24 06:35:29;;;;;;;46.07;23.80;;;2.80;99.90;;;;;;5041959;27;20209;-68
2024/03/24 06:38:16;;;;;;;41.73;21.60;;;2.70;1.00;;;;;;5046706;27;20212;-68
2024/03/24 06:41:03;;;;;;;42.07;22.93;;;2.70;1.00;;;;;;5038919;27;20312;-68
2024/03/24 06:43:50;;;;;;;40.67;21.90;;;2.70;1.00;;;;;;5043287;27;20256;-68
2024/03/24 06:46:36;;;;;;;43.07;22.13;;;2.70;99.90;;;;;;5044504;28;20361;-69
2024/03/24 06:49:23;;;;;;;45.63;22.53;;;2.80;1.00;;;;;;5039225;27;20565;-68
2024/03/24 06:52:10;;;;;;;40.47;20.70;;;3.00;99.90;;;;;;5045176;28;20209;-68
2024/03/24 06:54:58;;;;;;;40.97;19.90;;;3.10;99.90;;;;;;5049625;27;20211;-68
2024/03/24 06:57:45;;;;;;;49.10;23.77;;;3.10;99.90;;;;;;5048658;27;20198;-69
2024/03/24 07:00:32;;;;;;;41.60;20.53;;;3.20;99.90;;;;;;5041028;28;20268;-68
2024/03/24 07:03:18;;;;;;;45.27;23.13;;;3.10;99.90;;;;;;5044424;27;20280;-68
2024/03/24 07:06:06;;;;;;;44.27;24.33;;;3.20;99.90;;;;;;5046313;28;20706;-68
2024/03/24 07:08:53;;;;;;;50.50;26.47;;;3.20;99.90;;;;;;5046535;28;20289;-68
2024/03/24 07:11:41;;;;;;;51.00;25.17;;;3.10;99.90;;;;;;5049815;27;20231;-68
2024/03/24 07:14:27;;;;;;;47.27;24.47;;;3.20;99.90;;;;;;5041982;27;20198;-68
2024/03/24 07:17:14;;;;;;;56.80;30.57;;;3.20;1.00;;;;;;5043401;28;20264;-68
2024/03/24 07:20:00;;;;;;;53.50;26.83;;;3.20;99.90;;;;;;5044590;27;20220;-67
2024/03/24 07:22:47;;;;;;;46.53;23.17;;;3.40;99.90;;;;;;5047883;27;20224;-68
2024/03/24 07:25:35;;;;;;;44.43;25.03;;;3.40;99.90;;;;;;5038969;27;20205;-68
2024/03/24 07:28:22;;;;;;;31.27;13.67;;;3.30;1.00;;;;;;5040953;27;20202;-68
2024/03/24 07:31:08;;;;;;;33.73;12.83;;;3.40;1.00;;;;;;5045735;27;20198;-68
2024/03/24 07:33:56;;;;;;;54.97;30.37;;;3.20;99.90;;;;;;5041952;27;20585;-68
2024/03/24 07:36:42;;;;;;;57.80;29.13;;;3.20;92.70;;;;;;5041822;28;20271;-68
2024/03/24 07:39:29;;;;;;;56.63;28.40;;;3.20;49.70;;;;;;5043669;27;20220;-68
2024/03/24 07:42:17;;;;;;;52.70;26.33;;;3.10;1.00;;;;;;5046008;27;20517;-68
2024/03/24 07:45:05;;;;;;;41.60;21.53;;;3.10;1.00;;;;;;5039734;27;20209;-68
2024/03/24 07:47:51;;;;;;;42.23;19.83;;;3.00;1.00;;;;;;5043284;27;20225;-68
2024/03/24 07:50:40;;;;;;;18.20;7.10;;;2.70;99.90;;;;;;5045104;27;20197;-68
2024/03/24 07:53:26;;;;;;;37.37;18.40;;;2.70;1.00;;;;;;5046597;27;20212;-68
2024/03/24 07:56:13;;;;;;;35.30;17.67;;;2.60;1.00;;;;;;5044176;27;20246;-68
2024/03/24 07:59:00;;;;;;;37.77;18.33;;;2.60;99.90;;;;;;5042859;27;20193;-67
2024/03/24 08:01:48;;;;;;;36.57;16.97;;;2.60;99.90;;;;;;5044850;27;20204;-68
2024/03/24 08:04:34;;;;;;;36.77;17.63;;;2.60;1.00;;;;;;5045693;27;20205;-68
2024/03/24 08:07:21;;;;;;;33.70;17.47;;;2.70;1.00;;;;;;5040508;27;20209;-68
2024/03/24 08:10:12;;;;;;;38.20;18.23;;;2.70;1.00;;;;;;5038814;27;20684;-68
2024/03/24 08:12:59;;;;;;;34.27;15.87;;;2.60;99.90;;;;;;5040410;28;20209;-68
2024/03/24 08:15:47;;;;;;;18.30;8.70;;;2.60;99.90;;;;;;5041773;27;20205;-67
2024/03/24 08:18:36;;;;;;;32.23;12.67;;;2.60;99.90;;;;;;5033974;28;20233;-68
2024/03/24 08:21:23;;;;;;;32.00;12.73;;;2.40;1.00;;;;;;5020831;28;20627;-68
2024/03/24 08:24:12;;;;;;;30.13;14.57;;;2.40;1.00;;;;;;5023042;28;20640;-68
2024/03/24 08:26:58;;;;;;;24.30;11.87;;;2.30;99.90;;;;;;5015542;28;20213;-67
2024/03/24 08:29:45;;;;;;;9.67;4.53;;;2.50;1.00;;;;;;5024329;28;20189;-67
2024/03/24 08:32:33;;;;;;;39.43;19.93;;;2.30;1.00;;;;;;5016712;28;20202;-67
2024/03/24 08:35:20;;;;;;;37.07;17.27;;;2.30;1.00;;;;;;5016706;28;20688;-67
2024/03/24 08:38:06;;;;;;;46.20;19.43;;;2.40;99.90;;;;;;5023092;27;20350;-67
2024/03/24 08:40:53;;;;;;;39.07;20.47;;;2.40;99.90;;;;;;5025139;28;20601;-68
2024/03/24 08:43:39;;;;;;;34.70;16.13;;;2.00;1.00;;;;;;5020347;28;20874;-67
2024/03/24 08:46:28;;;;;;;42.60;18.47;;;1.90;99.90;;;;;;5012281;28;20676;-67
2024/03/24 08:49:15;;;;;;;32.07;13.93;;;1.60;1.00;;;;;;5017275;28;20246;-67
2024/03/24 08:52:02;;;;;;;38.83;17.80;;;1.60;1.00;;;;;;5011749;28;20570;-68
2024/03/24 08:54:49;;;;;;;43.00;21.43;;;1.40;1.00;;;;;;5018363;28;20197;-68
2024/03/24 08:57:39;;;;;;;41.40;20.93;;;1.20;99.90;;;;;;5019312;27;20202;-67
2024/03/24 09:00:25;;;;;;;34.77;15.50;;;1.20;99.90;;;;;;5017611;28;20221;-68
2024/03/24 09:03:12;;;;;;;37.17;16.47;;;1.20;1.00;;;;;;5019670;28;20194;-68
2024/03/24 09:06:00;;;;;;;55.60;26.07;;;1.10;99.90;;;;;;5024544;28;20202;-68
2024/03/24 09:08:47;;;;;;;55.87;27.43;;;1.10;99.90;;;;;;5017568;28;20211;-68
2024/03/24 09:11:33;;;;;;;48.07;23.07;;;0.80;1.00;;;;;;5014769;28;20232;-68
2024/03/24 09:14:20;;;;;;;32.70;16.50;;;0.90;1.00;;;;;;5022069;28;20213;-68
2024/03/24 09:17:06;;;;;;;29.80;14.77;;;1.00;1.00;;;;;;5017271;28;20210;-69
2024/03/24 09:19:54;;;;;;;12.43;5.83;;;0.90;1.00;;;;;;5020966;28;20225;-68
2024/03/24 09:22:41;;;;;;;25.23;11.90;;;0.80;1.00;;;;;;5028525;28;20198;-68
2024/03/24 09:25:28;;;;;;;24.70;12.57;;;0.70;1.00;;;;;;5024195;28;20198;-69
2024/03/24 09:28:14;;;;;;;20.53;10.20;;;0.70;1.00;;;;;;5023799;27;20206;-69
2024/03/24 09:31:03;;;;;;;26.23;12.63;;;0.70;1.00;;;;;;5022379;28;20198;-69
2024/03/24 09:33:49;;;;;;;20.17;10.97;;;0.80;1.00;;;;;;5044121;27;20250;-69
2024/03/24 09:36:36;;;;;;;19.90;9.87;;;0.80;1.00;;;;;;5024203;28;20205;-69
2024/03/24 09:39:24;;;;;;;10.97;5.33;;;0.80;1.00;;;;;;5046596;27;20216;-69
2024/03/24 09:42:12;;;;;;;24.03;12.47;;;0.90;1.00;;;;;;5022901;28;20202;-69
2024/03/24 09:44:59;;;;;;;18.07;9.30;;;0.80;1.00;;;;;;5024633;27;20953;-69
2024/03/24 09:47:48;;;;;;;17.83;9.93;;;0.80;1.00;;;;;;5026833;28;20727;-69
2024/03/24 09:50:34;;;;;;;15.10;8.50;;;1.10;1.00;;;;;;5026756;28;20562;-69
2024/03/24 09:53:21;;;;;;;21.27;11.77;;;1.20;1.00;;;;;;5063277;27;20191;-69
2024/03/24 09:56:09;;;;;;;17.03;8.83;;;1.30;1.00;;;;;;5017580;28;20255;-70
2024/03/24 09:58:58;;;;;;;20.17;10.27;;;1.40;1.00;;;;;;5024416;27;20241;-69
2024/03/24 10:01:47;;;;;;;18.63;9.17;;;1.30;1.00;;;;;;5022501;27;20241;-69
2024/03/24 10:04:34;;;;;;;19.63;10.63;;;1.80;19.10;;;;;;5022325;28;20217;-69
2024/03/24 10:07:20;;;;;;;17.13;9.70;;;2.50;1.00;;;;;;5017592;27;20206;-69
2024/03/24 10:10:08;;;;;;;18.70;9.13;;;3.50;99.90;;;;;;5018344;28;20228;-69
2024/03/24 10:12:56;;;;;;;15.73;9.20;;;4.00;72.40;;;;;;5025579;27;20210;-69
2024/03/24 10:15:44;;;;;;;13.50;8.30;;;4.50;1.00;;;;;;5028522;27;20201;-69
2024/03/24 10:18:30;;;;;;;12.63;6.77;;;5.40;1.00;;;;;;5022092;28;20699;-70
2024/03/24 10:21:18;;;;;;;14.50;7.97;;;5.70;1.00;;;;;;5028885;27;20278;-70
2024/03/24 10:24:05;;;;;;;10.60;6.80;;;5.80;81.20;;;;;;5031503;27;20584;-70
2024/03/24 10:26:53;;;;;;;11.63;6.47;;;6.90;69.20;;;;;;5039237;28;20215;-69
2024/03/24 10:29:40;;;;;;;9.80;2.80;;;6.70;1.00;;;;;;5033006;28;20217;-68
2024/03/24 10:32:27;;;;;;;11.77;6.33;;;6.70;1.00;;;;;;5027051;28;20209;-69
2024/03/24 10:35:14;;;;;;;11.67;7.07;;;6.90;99.90;;;;;;5024497;28;20198;-68
2024/03/24 10:38:01;;;;;;;13.93;7.60;;;6.30;99.90;;;;;;5028469;28;20277;-68
2024/03/24 10:40:47;;;;;;;13.13;7.53;;;6.70;1.00;;;;;;5022175;27;20222;-68
2024/03/24 10:43:34;;;;;;;10.53;6.20;;;7.20;99.90;;;;;;5025007;27;20198;-68
2024/03/24 10:46:22;;;;;;;6.03;3.33;;;7.30;1.00;;;;;;5022460;28;20211;-68
2024/03/24 10:49:09;;;;;;;7.30;4.00;;;6.90;99.90;;;;;;5022371;28;20199;-67
2024/03/24 10:51:56;;;;;;;12.17;6.00;;;6.90;99.90;;;;;;5037008;27;20197;-67
2024/03/24 10:54:43;;;;;;;15.07;8.83;;;7.10;99.90;;;;;;5018485;28;20195;-67
2024/03/24 10:57:29;;;;;;;9.13;5.20;;;7.10;1.00;;;;;;5021213;28;20437;-66
2024/03/24 11:00:17;;;;;;;14.03;7.57;;;6.80;1.00;;;;;;5024230;28;20217;-68
2024/03/24 11:03:04;;;;;;;11.80;4.50;;;7.50;99.90;;;;;;5016054;27;20206;-67
2024/03/24 11:05:52;;;;;;;14.53;7.90;;;6.40;1.00;;;;;;5022946;28;20254;-68
2024/03/24 11:08:38;;;;;;;14.93;8.07;;;6.50;1.00;;;;;;5046640;27;20261;-68
2024/03/24 11:11:26;;;;;;;8.97;4.10;;;7.80;1.00;;;;;;5015182;28;20223;-68
2024/03/24 11:14:12;;;;;;;13.77;6.70;;;7.20;1.00;;;;;;5030821;28;20226;-68
2024/03/24 11:16:59;;;;;;;9.97;4.07;;;6.50;1.00;;;;;;5011429;28;20221;-68
2024/03/24 11:19:50;;;;;;;14.10;9.30;;;6.30;1.00;;;;;;5034192;27;20202;-68
2024/03/24 11:22:37;;;;;;;8.13;4.23;;;5.00;1.00;;;;;;5022930;28;20201;-68
2024/03/24 11:25:23;;;;;;;2.63;1.93;;;4.60;99.90;;;;;;5028303;28;20205;-67
2024/03/24 11:28:11;;;;;;;6.87;4.17;;;3.60;99.90;;;;;;5024459;28;20583;-68
2024/03/24 11:30:57;;;;;;;7.20;5.10;;;3.20;1.00;;;;;;5019475;28;20198;-68
2024/03/24 11:33:45;;;;;;;9.67;5.47;;;3.00;99.90;;;;;;5015618;28;20210;-68
2024/03/24 11:36:34;;;;;;;12.07;5.33;;;3.10;49.00;;;;;;5015611;28;20198;-68
2024/03/24 11:39:22;;;;;;;12.70;7.00;;;3.20;99.90;;;;;;5019705;28;20250;-68
2024/03/24 11:42:09;;;;;;;7.83;3.53;;;3.20;99.90;;;;;;5019117;28;20206;-67
2024/03/24 11:44:56;;;;;;;13.33;7.20;;;3.10;99.90;;;;;;5022387;28;20229;-68
2024/03/24 11:47:44;;;;;;;14.93;8.03;;;3.00;99.90;;;;;;5018411;28;20202;-67
2024/03/24 11:50:31;;;;;;;13.60;7.17;;;3.00;1.00;;;;;;5014961;28;20194;-66
2024/03/24 11:53:21;;;;;;;7.07;4.20;;;2.90;99.90;;;;;;5022091;28;20208;-66
2024/03/24 11:56:08;;;;;;;19.27;10.90;;;2.90;1.00;;;;;;5017959;28;20254;-66
2024/03/24 11:58:55;;;;;;;17.10;9.67;;;3.00;1.00;;;;;;5027729;28;20214;-68
2024/03/24 12:01:42;;;;;;;19.00;11.17;;;3.20;99.90;;;;;;5019188;28;20273;-68
2024/03/24 12:04:28;;;;;;;16.03;8.70;;;3.50;1.00;;;;;;5012647;28;20217;-68
2024/03/24 12:07:15;;;;;;;10.87;5.50;;;4.10;1.00;;;;;;5020890;28;20190;-68
2024/03/24 12:10:03;;;;;;;13.07;5.33;;;5.00;1.00;;;;;;5019689;28;20719;-67
2024/03/24 12:12:51;;;;;;;11.37;6.50;;;4.90;1.00;;;;;;5019473;28;20202;-68
2024/03/24 12:15:38;;;;;;;13.03;7.27;;;4.90;1.00;;;;;;5023947;28;20692;-68
2024/03/24 12:18:25;;;;;;;9.27;4.60;;;5.80;99.90;;;;;;5016975;28;20243;-68
2024/03/24 12:21:11;;;;;;;7.90;4.33;;;6.70;99.90;;;;;;5027039;28;20224;-67
2024/03/24 12:23:58;;;;;;;7.07;4.60;;;6.40;99.90;;;;;;5030205;28;20251;-68
2024/03/24 12:26:46;;;;;;;5.93;3.27;;;7.50;1.00;;;;;;5028865;28;20200;-68
2024/03/24 12:29:33;;;;;;;6.57;3.47;;;7.80;1.00;;;;;;5020551;28;20277;-68
2024/03/24 12:32:19;;;;;;;7.47;4.40;;;7.50;34.10;;;;;;5014501;28;20199;-68
2024/03/24 12:35:07;;;;;;;7.70;4.90;;;7.50;99.90;;;;;;5017800;28;20202;-68
2024/03/24 12:37:53;;;;;;;15.63;2.40;;;8.30;1.00;;;;;;5019687;28;20201;-67
2024/03/24 12:40:48;;;;;;;8.30;4.30;;;8.80;99.90;;;;;;5020500;28;20216;-68
2024/03/24 12:43:36;;;;;;;4.17;2.67;;;9.40;1.00;;;;;;5021293;28;20263;-67
2024/03/24 12:46:26;;;;;;;7.43;4.10;;;8.30;1.00;;;;;;5026376;28;20220;-67
2024/03/24 12:49:13;;;;;;;6.57;3.77;;;7.80;1.00;;;;;;5018752;28;20207;-67
2024/03/24 12:52:00;;;;;;;4.73;2.17;;;8.20;1.00;;;;;;5018866;28;20663;-67
2024/03/24 12:54:46;;;;;;;10.40;4.20;;;8.20;99.90;;;;;;5025079;27;20200;-67
2024/03/24 12:57:33;;;;;;;7.40;4.33;;;8.50;1.00;;;;;;5019984;28;20572;-68
2024/03/24 13:00:21;;;;;;;4.33;2.33;;;8.90;99.90;;;;;;5020568;28;20226;-68
2024/03/24 13:03:09;;;;;;;4.30;2.40;;;8.90;1.00;;;;;;5020664;28;20211;-67
2024/03/24 13:05:58;;;;;;;6.73;3.70;;;7.90;99.90;;;;;;5026210;28;20612;-68
2024/03/24 13:08:46;;;;;;;4.43;2.20;;;7.60;99.90;;;;;;5023680;28;20220;-68
2024/03/24 13:11:33;;;;;;;2.73;1.70;;;7.60;99.90;;;;;;5020545;27;20609;-67
2024/03/24 13:14:19;;;;;;;6.33;4.10;;;6.80;1.00;;;;;;5023772;28;20199;-67
2024/03/24 13:17:11;;;;;;;3.20;1.97;;;6.80;1.00;;;;;;5021507;28;20625;-67
2024/03/24 13:19:59;;;;;;;1.63;1.27;;;7.60;1.00;;;;;;5025234;28;20208;-68
2024/03/24 13:22:47;;;;;;;6.07;3.43;;;7.00;1.00;;;;;;5024335;28;20222;-67
2024/03/24 13:25:33;;;;;;;5.63;3.20;;;6.80;1.00;;;;;;5029526;28;20589;-67
2024/03/24 13:28:20;;;;;;;6.50;3.90;;;6.80;1.00;;;;;;5025832;27;20201;-67
2024/03/24 13:31:06;;;;;;;3.50;1.30;;;7.20;1.00;;;;;;5021657;27;20195;-67
2024/03/24 13:33:55;;;;;;;1.97;1.13;;;7.30;1.00;;;;;;5023603;28;21374;-67
2024/03/24 13:36:47;;;;;;;5.63;3.50;;;7.50;99.90;;;;;;5024742;28;20677;-68
2024/03/24 13:39:39;;;;;;;2.07;1.53;;;7.10;99.90;;;;;;5020848;28;20191;-67
2024/03/24 13:42:31;;;;;;;7.20;3.33;;;7.00;99.90;;;;;;5023378;28;20244;-67
2024/03/24 13:45:23;;;;;;;8.10;3.30;;;7.10;1.00;;;;;;5021471;28;20202;-68
2024/03/24 13:48:12;;;;;;;8.77;3.60;;;7.30;99.90;;;;;;5016132;27;20661;-68
2024/03/24 13:51:00;;;;;;;3.37;2.00;;;7.20;99.90;;;;;;5022790;27;20700;-68
2024/03/24 13:53:48;;;;;;;10.50;3.57;;;7.20;99.90;;;;;;5014533;27;20273;-68
2024/03/24 13:56:35;;;;;;;4.50;2.50;;;6.90;1.00;;;;;;5025009;28;20276;-68
2024/03/24 13:59:21;;;;;;;2.43;1.60;;;6.90;1.00;;;;;;5027989;28;20721;-68
2024/03/24 14:02:10;;;;;;;5.00;2.70;;;6.80;99.90;;;;;;5016450;28;20273;-68
2024/03/24 14:04:57;;;;;;;6.47;2.50;;;7.10;99.90;;;;;;5019719;28;20239;-68
2024/03/24 14:07:45;;;;;;;4.60;2.90;;;7.80;99.90;;;;;;5026617;28;20204;-69
2024/03/24 14:10:31;;;;;;;4.93;3.00;;;8.70;99.90;;;;;;5020530;28;20221;-68
2024/03/24 14:13:27;;;;;;;6.60;3.10;;;9.60;99.90;;;;;;4545132;28;530066;-68
2024/03/24 14:16:18;;;;;;;3.73;1.47;;;9.50;1.00;;;;;;4442842;28;654477;-68
2024/03/24 14:19:09;;;;;;;5.53;2.93;;;9.50;53.30;;;;;;4416344;28;652672;-68
2024/03/24 14:21:59;;;;;;;8.17;2.27;;;9.20;99.90;;;;;;4443875;28;656690;-68
2024/03/24 14:24:57;;;;;;;7.07;2.73;;;8.80;99.90;;;;;;4437787;28;655088;-68
2024/03/24 14:27:44;;;;;;;4.22;2.67;;;8.10;99.90;;;;;;4421564;27;653831;-68
2024/03/24 14:30:31;;;;;;;6.40;2.67;;;8.00;1.00;;;;;;4470995;27;653004;-68
2024/03/24 14:33:17;;;;;;;5.53;2.73;;;7.90;1.00;;;;;;4465486;28;652719;-68
2024/03/24 14:36:23;;;;;;;5.27;2.60;;;7.70;1.00;;;;;;4440061;27;652264;-68